Time;durP1;ratioP1;P1;durP2;ratioP2;P2;SDS_P1;SDS_P2;PMS_P1;PMS_P2;Temp;Humidity;BMP_temperature;BMP_pressure;BME280_temperature;BME280_humidity;BME280_pressure;Samples;Min_cycle;Max_cycle;Signal;HPM_P1;HPM_P2
2023/01/09 00:01:49;;;;;;;18.33;10.50;;;230.60;2252.80;;;;;;5028622;28;20025;-85
2023/01/09 00:04:15;;;;;;;18.17;10.80;;;230.60;2252.80;;;;;;5033756;28;20029;-87
2023/01/09 00:06:42;;;;;;;20.52;11.30;;;230.60;2252.80;;;;;;5033494;28;20057;-81
2023/01/09 00:09:08;;;;;;;20.45;10.85;;;230.60;2252.80;;;;;;5004965;28;20501;-86
2023/01/09 00:11:34;;;;;;;18.23;10.23;;;230.60;2252.80;;;;;;5035779;28;20041;-86
2023/01/09 00:14:00;;;;;;;21.65;11.95;;;230.60;2252.80;;;;;;5036498;28;20025;-86
2023/01/09 00:16:26;;;;;;;;;;;230.60;2252.80;;;;;;5035776;28;20036;-86
2023/01/09 00:18:52;;;;;;;18.23;10.73;;;230.60;2252.80;;;;;;5036096;28;19919;-87
2023/01/09 00:21:19;;;;;;;22.92;11.52;;;230.60;2252.80;;;;;;5029950;28;20026;-87
2023/01/09 00:23:45;;;;;;;23.60;11.52;;;230.60;2252.80;;;;;;5035478;28;20035;-86
2023/01/09 00:26:12;;;;;;;17.67;9.88;;;230.60;2252.80;;;;;;5053748;28;20021;-86
2023/01/09 00:28:38;;;;;;;19.27;11.07;;;230.50;2252.80;;;;;;5035565;28;20035;-86
2023/01/09 00:31:05;;;;;;;22.13;11.82;;;230.50;2252.80;;;;;;5035709;28;20033;-87
2023/01/09 00:33:34;;;;;;;18.23;10.35;;;230.50;2252.80;;;;;;5036572;28;20057;-87
2023/01/09 00:36:00;;;;;;;19.65;11.18;;;230.50;2252.80;;;;;;5035719;28;20032;-86
2023/01/09 00:38:26;;;;;;;20.25;9.95;;;230.50;2252.80;;;;;;5026160;28;20032;-86
2023/01/09 00:40:53;;;;;;;;;;;230.50;2252.80;;;;;;5036187;28;20087;-86
2023/01/09 00:43:20;;;;;;;14.15;8.60;;;230.40;2252.80;;;;;;5035698;28;20397;-84
2023/01/09 00:45:46;;;;;;;21.98;10.75;;;230.40;2252.80;;;;;;5035595;28;20029;-85
2023/01/09 00:48:23;;;;;;;23.25;12.02;;;205.70;2252.80;;;;;;5034789;28;20062;-85
2023/01/09 00:50:49;;;;;;;22.33;11.38;;;205.70;2252.80;;;;;;5056562;28;20022;-85
2023/01/09 00:53:20;;;;;;;17.90;10.95;;;205.70;2252.80;;;;;;5035628;28;20082;-86
2023/01/09 00:55:45;;;;;;;19.95;11.10;;;205.60;2252.80;;;;;;5035659;28;20037;-82
2023/01/09 00:58:11;;;;;;;;;;;205.60;2252.80;;;;;;5044802;28;20490;-86
2023/01/09 01:00:37;;;;;;;17.80;10.93;;;205.50;2252.80;;;;;;5040728;28;19952;-86
2023/01/09 01:03:02;;;;;;;;;;;205.50;2252.80;;;;;;5040402;28;20162;-81
2023/01/09 01:08:16;;;;;;;20.30;10.50;;;205.40;2252.80;;;;;;5057545;28;20230;-86
2023/01/09 01:10:43;;;;;;;19.98;10.80;;;205.40;2252.80;;;;;;5039268;28;20029;-86
2023/01/09 01:13:10;;;;;;;23.52;11.55;;;205.40;2252.80;;;;;;5038866;28;20028;-86
2023/01/09 01:15:38;;;;;;;18.75;10.98;;;205.50;2252.80;;;;;;5040904;28;20150;-85
2023/01/09 01:18:04;;;;;;;21.88;11.35;;;205.40;2252.80;;;;;;5056740;28;20025;-85
2023/01/09 01:20:30;;;;;;;20.13;12.57;;;205.40;2252.80;;;;;;5039131;28;20096;-86
2023/01/09 01:22:55;;;;;;;;;;;205.40;2252.80;;;;;;5057228;28;20060;-86
2023/01/09 01:25:21;;;;;;;20.30;11.45;;;205.30;2252.80;;;;;;5038848;28;19905;-86
2023/01/09 01:27:47;;;;;;;;;;;205.30;2252.80;;;;;;5038825;28;20028;-86
2023/01/09 01:30:14;;;;;;;22.58;11.30;;;205.30;2252.80;;;;;;5056666;28;19909;-85
2023/01/09 01:32:40;;;;;;;22.13;11.10;;;205.30;2252.80;;;;;;5056840;28;20039;-86
2023/01/09 01:35:06;;;;;;;;;;;205.30;2252.80;;;;;;5037858;28;20546;-86
2023/01/09 01:37:33;;;;;;;21.33;12.30;;;205.30;2252.80;;;;;;5039375;28;19909;-86
2023/01/09 01:39:59;;;;;;;24.42;11.70;;;205.30;2252.80;;;;;;5056549;28;20436;-86
2023/01/09 01:42:25;;;;;;;;;;;205.30;2252.80;;;;;;5039074;28;20123;-86
2023/01/09 01:44:57;;;;;;;20.70;11.52;;;205.30;2252.80;;;;;;5038554;28;19905;-86
2023/01/09 01:48:00;;;;;;;23.67;12.35;;;205.20;2252.80;;;;;;5056014;28;20493;-85
2023/01/09 01:50:31;;;;;;;25.17;12.90;;;205.20;2252.80;;;;;;5029375;28;20538;-85
2023/01/09 01:53:20;;;;;;;20.80;11.63;;;205.20;2252.80;;;;;;5034231;28;20036;-84
2023/01/09 01:56:08;;;;;;;20.85;11.18;;;205.20;2252.80;;;;;;5036380;28;20029;-82
2023/01/09 01:58:47;;;;;;;21.92;12.25;;;205.20;2252.80;;;;;;5038181;28;20029;-81
2023/01/09 02:01:13;;;;;;;21.55;11.07;;;205.20;2252.80;;;;;;5056348;28;20029;-81
2023/01/09 02:03:41;;;;;;;22.70;13.40;;;205.20;2252.80;;;;;;5038141;28;20036;-84
2023/01/09 02:06:08;;;;;;;22.20;11.50;;;205.20;2252.80;;;;;;5038418;28;20017;-85
2023/01/09 02:08:34;;;;;;;24.05;11.80;;;205.20;2252.80;;;;;;5037866;28;20142;-85
2023/01/09 02:11:02;;;;;;;22.33;11.43;;;205.40;2252.80;;;;;;5038639;28;20086;-81
2023/01/09 02:13:29;;;;;;;18.88;11.00;;;205.10;2252.80;;;;;;5026940;28;20036;-84
2023/01/09 02:16:03;;;;;;;20.65;11.25;;;205.10;2252.80;;;;;;5036386;28;20037;-80
2023/01/09 02:18:32;;;;;;;19.58;11.77;;;205.10;2252.80;;;;;;5038350;28;20021;-85
2023/01/09 02:21:44;;;;;;;23.80;11.50;;;205.00;2252.80;;;;;;5038303;28;20029;-80
2023/01/09 02:24:09;;;;;;;19.50;11.20;;;205.00;2252.80;;;;;;5008449;28;20029;-81
2023/01/09 02:26:46;;;;;;;;;;;205.00;2252.80;;;;;;5038404;28;20025;-84
2023/01/09 02:29:39;;;;;;;22.10;11.55;;;205.00;2252.80;;;;;;5038269;28;19951;-85
2023/01/09 02:32:36;;;;;;;25.45;11.77;;;204.90;2252.80;;;;;;5025884;28;20025;-79
2023/01/09 02:35:19;;;;;;;19.50;11.00;;;204.90;2252.80;;;;;;5037747;28;20040;-85
2023/01/09 02:38:16;;;;;;;22.83;12.43;;;205.00;2252.80;;;;;;5037814;28;20025;-80
2023/01/09 02:40:51;;;;;;;22.23;12.07;;;205.00;2252.80;;;;;;5037664;28;20095;-86
2023/01/09 02:43:17;;;;;;;23.00;12.80;;;204.90;2252.80;;;;;;5037582;28;20039;-84
2023/01/09 02:45:43;;;;;;;21.10;12.95;;;204.90;2252.80;;;;;;5037419;28;20035;-82
2023/01/09 02:48:12;;;;;;;;;;;204.90;2252.80;;;;;;5040763;28;20017;-80
2023/01/09 02:50:58;;;;;;;24.20;13.90;;;204.80;2252.80;;;;;;5044336;28;19957;-85
2023/01/09 02:53:36;;;;;;;24.30;12.10;;;204.80;2252.80;;;;;;5055466;28;20025;-80
2023/01/09 02:56:15;;;;;;;22.60;12.35;;;204.80;2252.80;;;;;;5034266;28;20056;-85
2023/01/09 02:58:49;;;;;;;25.33;12.10;;;180.10;2252.80;;;;;;5037195;28;20021;-86
2023/01/09 03:01:31;;;;;;;24.90;12.68;;;180.10;2252.80;;;;;;5055338;28;20039;-80
2023/01/09 03:04:18;;;;;;;24.70;14.40;;;180.10;2252.80;;;;;;5037261;28;20040;-81
2023/01/09 03:06:43;;;;;;;;;;;180.10;2252.80;;;;;;5037648;28;20467;-85
2023/01/09 03:09:21;;;;;;;22.35;12.63;;;180.00;2252.80;;;;;;5037165;28;19915;-84
2023/01/09 03:11:54;;;;;;;22.90;13.13;;;179.90;2252.80;;;;;;5054724;28;20037;-85
2023/01/09 03:14:22;;;;;;;23.17;14.27;;;180.00;2252.80;;;;;;5036976;28;20040;-84
2023/01/09 03:16:54;;;;;;;22.75;13.15;;;180.00;2252.80;;;;;;5037150;28;20032;-84
2023/01/09 03:19:23;;;;;;;32.40;12.27;;;180.00;2252.80;;;;;;5036309;28;20025;-80
2023/01/09 03:21:49;;;;;;;23.20;12.75;;;180.00;2252.80;;;;;;5036993;28;20032;-86
2023/01/09 03:24:15;;;;;;;23.38;12.15;;;180.00;2252.80;;;;;;5036814;28;20031;-81
2023/01/09 03:26:41;;;;;;;;;;;180.00;2252.80;;;;;;5037042;28;20021;-79
2023/01/09 03:29:08;;;;;;;22.58;12.98;;;180.00;2252.80;;;;;;5037196;28;19905;-79
2023/01/09 03:31:34;;;;;;;25.30;13.63;;;180.00;2252.80;;;;;;5036991;28;20394;-80
2023/01/09 03:33:59;;;;;;;;;;;180.00;2252.80;;;;;;5055305;28;20033;-85
2023/01/09 03:36:25;;;;;;;25.02;12.95;;;180.00;2252.80;;;;;;5036774;28;19917;-80
2023/01/09 03:38:50;;;;;;;;;;;180.00;2252.80;;;;;;5036767;28;20483;-82
2023/01/09 03:41:18;;;;;;;26.95;13.68;;;180.00;2252.80;;;;;;5036841;28;20394;-85
2023/01/09 03:43:44;;;;;;;26.05;12.98;;;180.00;2252.80;;;;;;5036437;28;20048;-81
2023/01/09 03:46:10;;;;;;;24.70;13.55;;;180.00;2252.80;;;;;;5036399;28;20028;-81
2023/01/09 03:48:36;;;;;;;;;;;180.00;2252.80;;;;;;5037158;28;20018;-80
2023/01/09 03:51:01;;;;;;;23.30;11.55;;;180.00;2252.80;;;;;;5035799;28;19905;-79
2023/01/09 03:53:28;;;;;;;30.45;15.18;;;179.90;2252.80;;;;;;5036504;28;20025;-80
2023/01/09 03:55:56;;;;;;;28.15;14.20;;;179.90;2252.80;;;;;;5034977;28;20032;-89
2023/01/09 03:58:22;;;;;;;26.15;14.95;;;179.90;2252.80;;;;;;5035280;28;20033;-84
2023/01/09 04:00:49;;;;;;;26.85;15.32;;;179.90;2252.80;;;;;;5036634;28;20032;-82
2023/01/09 04:03:17;;;;;;;26.40;14.07;;;179.90;2252.80;;;;;;5054269;28;20025;-86
2023/01/09 04:05:44;;;;;;;27.02;14.35;;;179.90;2252.80;;;;;;5036745;28;20027;-87
2023/01/09 04:08:10;;;;;;;24.75;13.35;;;180.00;2252.80;;;;;;5035836;28;20132;-80
2023/01/09 04:10:35;;;;;;;;;;;180.00;2252.80;;;;;;5035588;28;20033;-80
2023/01/09 04:13:01;;;;;;;32.15;15.35;;;180.00;2252.80;;;;;;5036312;28;19905;-80
2023/01/09 04:15:26;;;;;;;;;;;180.00;2252.80;;;;;;5054238;28;20506;-80
2023/01/09 04:17:52;;;;;;;25.17;13.52;;;180.00;2252.80;;;;;;5036219;28;20292;-82
2023/01/09 04:20:18;;;;;;;;;;;180.00;2252.80;;;;;;5036506;28;20100;-85
2023/01/09 04:22:43;;;;;;;26.70;14.15;;;180.00;2252.80;;;;;;5035909;28;19905;-80
2023/01/09 04:25:09;;;;;;;;;;;180.00;2252.80;;;;;;5036353;28;20067;-87
2023/01/09 04:27:35;;;;;;;27.08;13.73;;;180.00;2252.80;;;;;;5036225;28;19904;-81
2023/01/09 04:30:01;;;;;;;;;;;180.00;2252.80;;;;;;5036339;28;20048;-86
2023/01/09 04:32:26;;;;;;;28.33;13.85;;;180.00;2252.80;;;;;;5035234;28;19909;-80
2023/01/09 04:34:52;;;;;;;;;;;179.90;2252.80;;;;;;5036440;28;20032;-87
2023/01/09 04:37:18;;;;;;;27.38;14.43;;;179.90;2252.80;;;;;;5035555;28;19909;-88
2023/01/09 04:39:44;;;;;;;;;;;179.90;2252.80;;;;;;5033576;28;20033;-87
2023/01/09 04:42:11;;;;;;;36.85;16.60;;;179.90;2252.80;;;;;;5053127;28;19999;-87
2023/01/09 04:44:37;;;;;;;29.42;16.80;;;179.80;2252.80;;;;;;5036164;28;20368;-86
2023/01/09 04:47:02;;;;;;;;;;;179.90;2252.80;;;;;;5036252;28;20230;-87
2023/01/09 04:49:28;;;;;;;31.70;15.00;;;179.90;2252.80;;;;;;5033087;28;20351;-88
2023/01/09 04:51:54;;;;;;;;;;;179.90;2252.80;;;;;;5036160;28;20624;-86
2023/01/09 04:54:20;;;;;;;25.20;15.15;;;179.80;2252.80;;;;;;5035542;28;19920;-87
2023/01/09 04:56:46;;;;;;;33.67;16.15;;;179.80;2252.80;;;;;;5035662;28;20045;-87
2023/01/09 04:59:12;;;;;;;;;;;179.90;2252.80;;;;;;5036312;28;20029;-87
2023/01/09 05:01:38;;;;;;;42.95;16.30;;;179.90;2252.80;;;;;;5035813;28;20277;-84
2023/01/09 05:04:04;;;;;;;;;;;179.90;2252.80;;;;;;5035814;28;20028;-87
2023/01/09 05:06:30;;;;;;;32.15;17.52;;;179.90;2252.80;;;;;;5031321;28;19911;-87
2023/01/09 05:08:56;;;;;;;31.20;15.85;;;179.80;2252.80;;;;;;5032568;28;20025;-83
2023/01/09 05:11:22;;;;;;;;;;;179.80;2252.80;;;;;;5035778;28;20372;-87
2023/01/09 05:13:47;;;;;;;32.05;17.10;;;179.80;2252.80;;;;;;5034928;28;19905;-87
2023/01/09 05:16:13;;;;;;;;;;;179.80;2252.80;;;;;;5035309;28;20036;-83
2023/01/09 05:18:39;;;;;;;40.13;16.40;;;179.80;2252.80;;;;;;5032785;28;19905;-86
2023/01/09 05:21:05;;;;;;;32.47;17.38;;;179.80;2252.80;;;;;;5035525;28;20029;-87
2023/01/09 05:23:30;;;;;;;;;;;179.80;2252.80;;;;;;5035882;28;20033;-85
2023/01/09 05:25:56;;;;;;;33.05;15.77;;;179.70;2252.80;;;;;;5033357;28;20289;-81
2023/01/09 05:28:22;;;;;;;30.33;16.23;;;179.70;2252.80;;;;;;5034845;28;20021;-91
2023/01/09 05:30:48;;;;;;;;;;;179.70;2252.80;;;;;;5035074;28;20036;-87
2023/01/09 05:33:13;;;;;;;36.03;17.58;;;179.60;2252.80;;;;;;5031715;28;19940;-88
2023/01/09 05:35:39;;;;;;;;;;;179.60;2252.80;;;;;;5035316;28;20033;-87
2023/01/09 05:38:05;;;;;;;27.60;14.85;;;179.70;2252.80;;;;;;5035038;28;20354;-84
2023/01/09 05:40:31;;;;;;;32.20;15.98;;;179.60;2252.80;;;;;;5027235;28;20029;-89
2023/01/09 05:42:56;;;;;;;;;;;179.60;2252.80;;;;;;5035460;28;20032;-87
2023/01/09 05:45:22;;;;;;;28.25;15.93;;;179.60;2252.80;;;;;;5038892;28;19915;-83
2023/01/09 05:47:48;;;;;;;;;;;179.60;2252.80;;;;;;5039551;28;20028;-90
2023/01/09 05:50:14;;;;;;;34.28;14.38;;;179.70;2252.80;;;;;;5039009;28;19905;-80
2023/01/09 05:52:39;;;;;;;27.33;13.82;;;179.70;2252.80;;;;;;5038842;28;20090;-85
2023/01/09 05:55:06;;;;;;;;;;;179.70;2252.80;;;;;;5039459;28;20033;-80
2023/01/09 05:57:32;;;;;;;31.47;16.40;;;179.70;2252.80;;;;;;5035428;28;19963;-85
2023/01/09 05:59:58;;;;;;;;;;;179.70;2252.80;;;;;;5035418;28;20271;-80
2023/01/09 06:02:24;;;;;;;34.03;16.60;;;179.70;2252.80;;;;;;5022685;28;19905;-80
2023/01/09 06:04:50;;;;;;;24.05;14.38;;;179.70;2252.80;;;;;;5034886;28;20060;-85
2023/01/09 06:07:16;;;;;;;;;;;179.70;2252.80;;;;;;5035269;28;20526;-80
2023/01/09 06:09:41;;;;;;;28.08;15.48;;;179.80;2252.80;;;;;;5028885;28;19951;-81
2023/01/09 06:12:07;;;;;;;27.33;15.45;;;179.70;2252.80;;;;;;5034183;28;20065;-80
2023/01/09 06:14:33;;;;;;;;;;;179.80;2252.80;;;;;;5034336;28;20136;-85
2023/01/09 06:16:59;;;;;;;29.40;14.32;;;179.80;2252.80;;;;;;5034418;28;19905;-84
2023/01/09 06:19:24;;;;;;;;;;;179.80;2252.80;;;;;;5018985;28;20475;-81
2023/01/09 06:21:52;;;;;;;22.58;13.48;;;179.80;2252.80;;;;;;5031136;28;19908;-80
2023/01/09 06:24:18;;;;;;;31.05;14.80;;;179.80;2252.80;;;;;;5034900;28;20017;-84
2023/01/09 06:26:43;;;;;;;;;;;179.90;2252.80;;;;;;5035358;28;20075;-80
2023/01/09 06:29:09;;;;;;;21.55;9.80;;;179.90;2252.80;;;;;;5025057;28;19909;-85
2023/01/09 06:31:35;;;;;;;;;;;180.00;2252.80;;;;;;5034787;28;20031;-81
2023/01/09 06:34:01;;;;;;;20.48;10.85;;;180.00;2252.80;;;;;;5024648;28;19905;-83
2023/01/09 06:36:26;;;;;;;;;;;180.10;2252.80;;;;;;5034804;28;20467;-79
2023/01/09 06:38:52;;;;;;;25.75;13.85;;;180.10;2252.80;;;;;;5034512;28;20306;-85
2023/01/09 06:41:17;;;;;;;;;;;180.00;2252.80;;;;;;5030662;28;20041;-85
2023/01/09 06:43:43;;;;;;;29.67;14.13;;;180.10;2252.80;;;;;;5034696;28;19967;-80
2023/01/09 06:46:09;;;;;;;;;;;180.10;2252.80;;;;;;5034625;28;20026;-85
2023/01/09 06:48:35;;;;;;;25.10;13.23;;;180.10;2252.80;;;;;;5034406;28;19909;-80
2023/01/09 06:51:00;;;;;;;;;;;180.10;2252.80;;;;;;5031283;28;20021;-80
2023/01/09 06:53:26;;;;;;;28.50;15.07;;;180.10;2252.80;;;;;;5023919;28;19905;-80
2023/01/09 06:55:52;;;;;;;;;;;180.10;2252.80;;;;;;5033477;28;20149;-85
2023/01/09 06:58:18;;;;;;;26.67;12.43;;;180.10;2252.80;;;;;;5033986;28;20365;-80
2023/01/09 07:00:43;;;;;;;;;;;180.10;2252.80;;;;;;5034426;28;20053;-82
2023/01/09 07:03:10;;;;;;;24.08;11.98;;;180.10;2252.80;;;;;;5017643;28;19927;-87
2023/01/09 07:05:41;;;;;;;28.70;14.63;;;180.10;2252.80;;;;;;5030355;28;20032;-83
2023/01/09 07:08:08;;;;;;;28.77;15.55;;;180.10;2252.80;;;;;;5033777;28;20044;-82
2023/01/09 07:10:34;;;;;;;29.80;15.80;;;204.80;2252.80;;;;;;5009300;28;20029;-81
2023/01/09 07:13:00;;;;;;;28.25;15.10;;;204.80;2252.80;;;;;;5017574;28;20541;-80
2023/01/09 07:15:25;;;;;;;;;;;204.80;2252.80;;;;;;5017783;28;20037;-79
2023/01/09 07:17:52;;;;;;;27.98;13.73;;;204.80;2252.80;;;;;;5017381;28;19905;-84
2023/01/09 07:20:18;;;;;;;25.73;13.25;;;204.80;2252.80;;;;;;5034435;28;20028;-82
2023/01/09 07:22:43;;;;;;;;;;;204.80;2252.80;;;;;;5017543;28;20033;-79
2023/01/09 07:25:09;;;;;;;23.20;11.07;;;180.00;2252.80;;;;;;5034876;28;19912;-87
2023/01/09 07:27:35;;;;;;;;;;;204.90;2252.80;;;;;;5017597;28;20473;-81
2023/01/09 07:30:01;;;;;;;25.05;13.38;;;204.90;2252.80;;;;;;5003749;28;19905;-79
2023/01/09 07:32:26;;;;;;;;;;;205.00;2252.80;;;;;;5017380;28;20033;-81
2023/01/09 07:34:52;;;;;;;25.63;13.77;;;205.00;2252.80;;;;;;5016069;28;19912;-86
2023/01/09 07:37:18;;;;;;;;;;;205.10;2252.80;;;;;;5016934;28;20391;-80
2023/01/09 07:39:43;;;;;;;29.50;13.82;;;205.10;2252.80;;;;;;5007082;28;20377;-79
2023/01/09 07:42:09;;;;;;;;;;;205.20;2252.80;;;;;;5008571;28;20032;-80
2023/01/09 07:44:35;;;;;;;23.17;11.95;;;205.20;2252.80;;;;;;5015204;28;19948;-81
2023/01/09 07:47:01;;;;;;;;;;;205.20;2252.80;;;;;;5016883;28;20392;-84
2023/01/09 07:49:27;;;;;;;29.52;14.35;;;205.20;2252.80;;;;;;5015763;28;19909;-79
2023/01/09 07:51:52;;;;;;;;;;;205.20;2252.80;;;;;;5017070;28;20060;-86
2023/01/09 07:54:18;;;;;;;23.77;11.65;;;205.20;2252.80;;;;;;5016374;28;19936;-80
2023/01/09 07:56:44;;;;;;;;;;;205.20;2252.80;;;;;;5016761;28;20041;-80
2023/01/09 07:59:09;;;;;;;28.15;13.02;;;205.20;2252.80;;;;;;5015433;28;20347;-80
2023/01/09 08:01:35;;;;;;;;;;;205.20;2252.80;;;;;;5016270;28;20380;-82
2023/01/09 08:04:01;;;;;;;27.52;11.98;;;205.20;2252.80;;;;;;5015780;28;19905;-80
2023/01/09 08:06:26;;;;;;;;;;;205.20;2252.80;;;;;;5004958;28;20108;-82
2023/01/09 08:08:52;;;;;;;21.92;10.88;;;205.20;2252.80;;;;;;5015811;28;20367;-91
2023/01/09 08:11:18;;;;;;;;;;;205.20;2252.80;;;;;;5016444;28;20514;-79
2023/01/09 08:13:43;;;;;;;25.00;13.27;;;205.30;2252.80;;;;;;5015618;28;19923;-81
2023/01/09 08:16:09;;;;;;;;;;;205.30;2252.80;;;;;;5016176;28;20037;-80
2023/01/09 08:18:34;;;;;;;22.88;10.27;;;205.30;2252.80;;;;;;5014870;28;19940;-88
2023/01/09 08:21:00;;;;;;;;;;;205.20;2252.80;;;;;;5012752;28;20091;-81
2023/01/09 08:23:26;;;;;;;28.02;12.55;;;205.30;2252.80;;;;;;5016652;28;20377;-90
2023/01/09 08:25:52;;;;;;;;;;;205.30;2252.80;;;;;;5016077;28;20033;-81
2023/01/09 08:28:17;;;;;;;23.67;13.02;;;205.30;2252.80;;;;;;5015694;28;19909;-84
2023/01/09 08:30:43;;;;;;;;;;;205.30;2252.80;;;;;;5032848;28;20056;-86
2023/01/09 08:33:09;;;;;;;23.92;11.75;;;205.30;2252.80;;;;;;5015230;28;19944;-90
2023/01/09 08:35:35;;;;;;;;;;;205.30;2252.80;;;;;;5015012;28;20034;-88
2023/01/09 08:38:01;;;;;;;18.70;10.15;;;205.30;2252.80;;;;;;5015550;28;19905;-88
2023/01/09 08:40:27;;;;;;;;;;;205.40;2252.80;;;;;;5017178;28;20021;-82
2023/01/09 08:48:21;;;;;;;23.92;11.75;;;205.50;2252.80;;;;;;5042001;28;20026;-85
2023/01/09 08:50:46;;;;;;;19.73;10.98;;;205.50;2252.80;;;;;;5017199;28;20029;-84
2023/01/09 08:53:12;;;;;;;;;;;205.60;2252.80;;;;;;5017312;28;20071;-82
2023/01/09 08:55:38;;;;;;;26.45;12.05;;;205.60;2252.80;;;;;;5015771;28;20019;-92
2023/01/09 08:58:04;;;;;;;;;;;205.60;2252.80;;;;;;5010334;28;20111;-93
2023/01/09 09:00:29;;;;;;;21.75;11.60;;;205.60;2252.80;;;;;;5015629;28;19905;-81
2023/01/09 09:02:56;;;;;;;;;;;205.60;2252.80;;;;;;5017051;28;20029;-90
2023/01/09 09:05:24;;;;;;;23.98;11.10;;;205.60;2252.80;;;;;;5015893;28;20024;-93
2023/01/09 09:07:53;;;;;;;16.00;9.70;;;205.60;2252.80;;;;;;5036122;28;20076;-90
2023/01/09 09:10:19;;;;;;;24.45;12.57;;;205.50;2252.80;;;;;;5011680;28;20085;-88
2023/01/09 09:12:51;;;;;;;26.35;12.15;;;205.50;2252.80;;;;;;5016462;28;20029;-86
2023/01/09 09:15:23;;;;;;;25.02;14.27;;;205.50;2252.80;;;;;;5018281;28;20052;-80
2023/01/09 09:17:55;;;;;;;20.42;10.95;;;205.50;2252.80;;;;;;5017623;28;20014;-81
2023/01/09 09:20:23;;;;;;;20.15;10.40;;;205.50;2252.80;;;;;;5005311;28;20521;-80
2023/01/09 09:22:49;;;;;;;20.88;12.00;;;205.50;2252.80;;;;;;5029962;28;20487;-88
2023/01/09 09:25:16;;;;;;;22.25;11.27;;;205.40;2252.80;;;;;;5031415;28;20022;-83
2023/01/09 09:27:42;;;;;;;20.88;11.85;;;205.40;2252.80;;;;;;5035306;28;20025;-80
2023/01/09 09:30:09;;;;;;;;;;;205.40;2252.80;;;;;;5035197;28;20040;-79
2023/01/09 09:32:35;;;;;;;27.17;11.68;;;205.30;2252.80;;;;;;5032849;28;20247;-80
2023/01/09 09:35:00;;;;;;;23.10;11.73;;;205.30;2252.80;;;;;;5033324;28;20040;-79
2023/01/09 09:37:26;;;;;;;;;;;205.20;2252.80;;;;;;5035417;28;20026;-81
2023/01/09 09:39:52;;;;;;;21.27;10.77;;;205.10;2252.80;;;;;;5034578;28;19909;-81
2023/01/09 09:45:30;;;;;;;23.15;11.27;;;205.10;2252.80;;;;;;5037456;28;20007;-82
2023/01/09 09:48:26;;;;;;;25.58;12.05;;;205.00;2252.80;;;;;;5025520;28;20026;-82
2023/01/09 09:51:00;;;;;;;20.23;10.40;;;205.00;2252.80;;;;;;5039323;28;20064;-83
2023/01/09 09:53:41;;;;;;;23.25;11.18;;;205.10;2252.80;;;;;;5032807;28;20021;-87
2023/01/09 09:56:12;;;;;;;19.23;11.25;;;205.10;2252.80;;;;;;5027955;28;20037;-86
2023/01/09 09:58:45;;;;;;;19.77;10.60;;;205.10;2252.80;;;;;;5017211;28;20072;-86
2023/01/09 10:01:17;;;;;;;25.02;13.38;;;205.10;2252.80;;;;;;5020192;28;20026;-87
2023/01/09 10:03:45;;;;;;;23.50;12.30;;;205.20;2252.80;;;;;;5015341;28;20047;-82
2023/01/09 10:06:28;;;;;;;22.45;12.50;;;205.20;2252.80;;;;;;5034684;28;20030;-87
2023/01/09 10:09:01;;;;;;;23.30;11.88;;;205.20;2252.80;;;;;;5034003;28;20029;-81
2023/01/09 10:12:09;;;;;;;25.08;13.10;;;205.20;2252.80;;;;;;5021026;28;20025;-82
2023/01/09 10:14:35;;;;;;;23.75;12.27;;;205.20;2252.80;;;;;;5016480;28;20050;-81
2023/01/09 10:17:19;;;;;;;;;;;205.20;2252.80;;;;;;5020436;28;20080;-83
2023/01/09 10:20:22;;;;;;;21.77;11.52;;;205.20;2252.80;;;;;;5033723;28;19906;-85
2023/01/09 10:22:48;;;;;;;28.63;12.20;;;205.20;2252.80;;;;;;5011773;28;20034;-82
2023/01/09 10:25:25;;;;;;;;;;;205.10;2252.80;;;;;;5021015;28;20391;-84
2023/01/09 10:28:03;;;;;;;27.33;12.05;;;205.10;2252.80;;;;;;5025628;28;19951;-85
2023/01/09 10:30:29;;;;;;;18.80;10.50;;;205.10;2252.80;;;;;;5034413;28;20040;-83
2023/01/09 10:32:55;;;;;;;;;;;205.10;2252.80;;;;;;5018599;28;20037;-83
2023/01/09 10:35:39;;;;;;;20.92;11.32;;;205.10;2252.80;;;;;;5019241;28;19935;-90
2023/01/09 10:38:07;;;;;;;23.17;12.07;;;205.10;2252.80;;;;;;5031965;28;20112;-85
2023/01/09 10:40:53;;;;;;;20.70;11.60;;;205.10;2252.80;;;;;;5020081;28;20522;-84
2023/01/09 10:43:33;;;;;;;23.00;12.05;;;205.20;2252.80;;;;;;5029437;28;20033;-87
2023/01/09 10:46:08;;;;;;;22.25;12.00;;;205.20;2252.80;;;;;;5018370;28;20351;-88
2023/01/09 10:48:39;;;;;;;24.50;11.30;;;205.20;2252.80;;;;;;5019544;28;20049;-85
2023/01/09 10:51:17;;;;;;;21.02;12.60;;;205.20;2252.80;;;;;;5026457;28;20079;-87
2023/01/09 10:53:56;;;;;;;21.15;10.85;;;205.20;2252.80;;;;;;5022790;28;20065;-89
2023/01/09 10:56:23;;;;;;;21.27;12.13;;;205.20;2252.80;;;;;;5011931;28;20053;-89
2023/01/09 10:58:50;;;;;;;22.05;12.63;;;205.30;2252.80;;;;;;5017670;28;20072;-81
2023/01/09 11:01:23;;;;;;;23.25;11.63;;;205.30;2252.80;;;;;;5015764;28;20083;-79
2023/01/09 11:03:48;;;;;;;25.27;11.98;;;205.40;2252.80;;;;;;5034976;28;20018;-82
2023/01/09 11:06:26;;;;;;;;;;;205.40;2252.80;;;;;;5016634;28;20032;-81
2023/01/09 11:08:59;;;;;;;18.90;10.52;;;205.40;2252.80;;;;;;5015727;28;19944;-81
2023/01/09 11:11:35;;;;;;;24.98;11.50;;;205.50;2252.80;;;;;;5016070;28;20123;-79
2023/01/09 11:14:17;;;;;;;22.73;13.10;;;205.50;2252.80;;;;;;5005806;28;20095;-77
2023/01/09 11:16:57;;;;;;;24.77;12.75;;;205.60;2252.80;;;;;;5020943;28;20668;-77
2023/01/09 11:19:24;;;;;;;17.05;9.63;;;205.70;2252.80;;;;;;5029656;28;20479;-80
2023/01/09 11:22:04;;;;;;;21.63;11.27;;;205.70;2252.80;;;;;;5034290;28;20029;-84
2023/01/09 11:24:30;;;;;;;23.05;13.07;;;230.40;2252.80;;;;;;5034043;28;20048;-86
2023/01/09 11:27:16;;;;;;;;;;;230.50;2252.80;;;;;;5016517;28;20036;-79
2023/01/09 11:29:42;;;;;;;18.15;9.63;;;230.50;2252.80;;;;;;5015374;28;20359;-76
2023/01/09 11:32:22;;;;;;;17.15;9.88;;;230.50;2252.80;;;;;;5015708;28;20029;-75
2023/01/09 11:34:48;;;;;;;23.25;11.05;;;230.50;2252.80;;;;;;5015809;28;20025;-79
2023/01/09 11:37:23;;;;;;;20.63;11.00;;;230.50;2252.80;;;;;;5016386;28;20032;-78
2023/01/09 11:39:49;;;;;;;22.87;10.67;;;230.50;2252.80;;;;;;5014990;28;20017;-84
2023/01/09 11:42:49;;;;;;;;;;;230.50;2252.80;;;;;;5016242;28;20269;-80
2023/01/09 11:45:13;;;;;;;21.50;11.63;;;230.50;2252.80;;;;;;5031445;28;20322;-81
2023/01/09 11:47:39;;;;;;;21.88;10.90;;;230.50;2252.80;;;;;;5009549;28;20542;-82
2023/01/09 11:50:22;;;;;;;16.92;9.75;;;230.50;2252.80;;;;;;5014910;28;20037;-81
2023/01/09 11:53:12;;;;;;;17.38;10.82;;;230.50;2252.80;;;;;;5011812;28;20029;-79
2023/01/09 11:55:38;;;;;;;19.50;11.05;;;230.50;2252.80;;;;;;5011090;28;20092;-82
2023/01/09 11:58:04;;;;;;;19.45;10.30;;;230.50;2252.80;;;;;;5015400;28;20041;-79
2023/01/09 12:00:43;;;;;;;24.02;10.43;;;230.50;2252.80;;;;;;5015611;28;20095;-80
2023/01/09 12:03:20;;;;;;;17.70;10.70;;;230.50;2252.80;;;;;;5015536;28;20024;-81
2023/01/09 12:06:02;;;;;;;16.33;9.70;;;230.50;2252.80;;;;;;5014152;28;20064;-81
2023/01/09 12:08:42;;;;;;;17.13;9.55;;;230.50;2252.80;;;;;;5032471;28;20112;-83
2023/01/09 12:11:28;;;;;;;20.30;10.32;;;230.50;2252.80;;;;;;5015675;28;20491;-79
2023/01/09 12:14:00;;;;;;;18.25;8.95;;;230.50;2252.80;;;;;;5030368;28;20096;-87
2023/01/09 12:16:29;;;;;;;16.15;8.68;;;230.60;2252.80;;;;;;5016018;28;20041;-87
2023/01/09 12:18:54;;;;;;;18.15;9.80;;;230.60;2252.80;;;;;;5033626;28;20017;-90
2023/01/09 12:21:24;;;;;;;21.55;10.52;;;230.60;2252.80;;;;;;5010870;28;20500;-91
2023/01/09 12:23:52;;;;;;;18.08;9.05;;;230.70;2252.80;;;;;;5033412;28;20431;-86
2023/01/09 12:26:36;;;;;;;16.80;9.10;;;230.70;2252.80;;;;;;5008499;28;20466;-81
2023/01/09 12:29:09;;;;;;;16.38;8.77;;;230.70;2252.80;;;;;;5008909;28;20080;-86
2023/01/09 12:31:46;;;;;;;17.42;9.15;;;230.70;2252.80;;;;;;5008029;28;20021;-87
2023/01/09 12:34:24;;;;;;;16.55;9.20;;;230.70;2252.80;;;;;;5024399;28;20029;-83
2023/01/09 12:36:52;;;;;;;19.88;9.35;;;230.80;2252.80;;;;;;5016011;28;20025;-84
2023/01/09 12:39:24;;;;;;;13.20;7.78;;;230.80;2252.80;;;;;;5031750;28;20049;-84
2023/01/09 12:42:22;;;;;;;18.35;9.05;;;230.80;2252.80;;;;;;5033735;28;20076;-85
2023/01/09 12:44:54;;;;;;;14.38;7.88;;;230.90;2252.80;;;;;;4943637;28;20046;-88
2023/01/09 12:47:45;;;;;;;14.77;8.48;;;230.90;2252.80;;;;;;4948891;28;20036;-85